Bassano, Canada
Current Conditions -  °F | °C
As of 11:00 AM on Tuesday 21 Oct 2014 (Local Time) from CYYC Reporting Station
Overcast Overcast  
Wind Chill: 52°   Ceiling: 18000
Heat Index: 52°   Visibility: 40mi
Dew Point: 36°   Wind: 2mph
Humidity: 54%   Direction: NA
Pressure: 29.66"   Gusts: NA
Location:  50.78°N, 112.47°W
Report Text: CYYC 211700Z VRB02KT 40SM FEW080 BKN180 OVC300 11/02 A2966 RMK AC1AS6CI1 SUN DIMLY VISBL SLP053 DENSITY ALT 4300FT
Loading
Personal Weather Stations






























Interactive Weather Map
Tropical Storm Tracking
New forecast layout! Learn more

10-Day Weather Forecast

Advertisements
Track Severe Weather on mobile